createdAt,value
2022-08-22T00:00:43.718Z,19.40
2022-08-22T00:02:57.439Z,20.19
2022-08-22T00:03:22.922Z,19.41
2022-08-22T00:06:04.186Z,19.44
2022-08-22T00:08:42.721Z,19.47
2022-08-22T00:11:22.258Z,19.46
2022-08-22T00:14:01.407Z,19.42
2022-08-22T00:16:39.086Z,19.34
2022-08-22T00:19:17.672Z,19.30
2022-08-22T00:21:54.796Z,19.27
2022-08-22T00:24:31.474Z,19.24
2022-08-22T00:27:07.429Z,19.20
2022-08-22T00:29:46.251Z,19.18
2022-08-22T00:32:22.533Z,19.17
2022-08-22T00:34:59.801Z,19.16
2022-08-22T00:37:36.935Z,19.15
2022-08-22T00:40:15.891Z,19.15
2022-08-22T00:43:15.776Z,19.16
2022-08-22T00:46:02.302Z,19.14
2022-08-22T00:49:12.818Z,18.86
2022-08-22T00:52:00.711Z,19.08
2022-08-22T00:54:43.447Z,19.01
2022-08-22T00:57:46.571Z,18.98
2022-08-22T01:00:22.010Z,18.97
2022-08-22T01:03:22.316Z,18.94
2022-08-22T01:06:05.442Z,18.91
2022-08-22T01:08:47.766Z,18.91
2022-08-22T01:11:31.195Z,18.92
2022-08-22T01:14:16.600Z,18.92
2022-08-22T01:17:13.238Z,18.78
2022-08-22T01:20:21.756Z,18.92
2022-08-22T01:23:28.642Z,18.90
2022-08-22T01:26:31.530Z,18.87
2022-08-22T01:29:37.388Z,18.89
2022-08-22T01:33:06.595Z,18.90
2022-08-22T01:39:35.449Z,19.18
2022-08-22T01:42:39.534Z,19.03
2022-08-22T01:45:39.047Z,19.10
2022-08-22T01:48:15.386Z,19.12
2022-08-22T01:50:51.166Z,19.11
2022-08-22T01:53:28.167Z,19.14
2022-08-22T01:56:03.010Z,19.21
2022-08-22T01:58:38.640Z,19.29
2022-08-22T02:01:20.330Z,19.21
2022-08-22T02:04:00.998Z,19.20
2022-08-22T02:06:42.293Z,19.13
2022-08-22T02:09:24.335Z,19.07
2022-08-22T02:12:00.365Z,19.01
2022-08-22T02:14:41.825Z,18.92
2022-08-22T02:17:19.916Z,18.92
2022-08-22T02:19:58.253Z,18.89
2022-08-22T02:22:44.795Z,18.85
2022-08-22T02:25:19.482Z,18.80
2022-08-22T02:27:57.602Z,18.83
2022-08-22T02:30:35.197Z,18.91
2022-08-22T02:33:11.457Z,18.98
2022-08-22T02:35:48.782Z,19.09
2022-08-22T02:38:28.492Z,19.21
2022-08-22T02:41:10.589Z,19.33
2022-08-22T02:43:47.780Z,19.43
2022-08-22T02:46:29.015Z,19.51
2022-08-22T02:49:06.869Z,19.50
2022-08-22T02:51:43.443Z,19.44
2022-08-22T02:54:21.217Z,19.26
2022-08-22T02:56:54.463Z,19.05
2022-08-22T02:59:34.579Z,19.06
2022-08-22T03:05:23.273Z,19.10
2022-08-22T03:08:00.413Z,19.04
2022-08-22T03:10:38.176Z,19.04
2022-08-22T03:13:14.262Z,19.04
2022-08-22T03:15:50.089Z,19.08
2022-08-22T03:18:27.564Z,19.03
2022-08-22T03:21:03.736Z,18.86
2022-08-22T03:23:40.639Z,18.78
2022-08-22T03:26:17.794Z,18.81
2022-08-22T03:28:58.871Z,18.80
2022-08-22T03:31:31.022Z,18.76
2022-08-22T03:34:22.924Z,18.69
2022-08-22T03:37:06.701Z,18.70
2022-08-22T03:39:50.031Z,18.75
2022-08-22T03:43:00.846Z,18.82
2022-08-22T03:46:17.817Z,18.94
2022-08-22T03:49:23.821Z,19.10
2022-08-22T03:52:14.116Z,19.19
2022-08-22T03:55:12.616Z,19.32
2022-08-22T03:58:15.860Z,19.37
2022-08-22T04:04:23.934Z,19.55
2022-08-22T04:07:28.329Z,19.46
2022-08-22T04:13:36.302Z,19.72
2022-08-22T04:16:23.904Z,19.57
2022-08-22T04:19:01.987Z,19.59
2022-08-22T04:22:12.284Z,19.68
2022-08-22T04:25:05.863Z,19.66
2022-08-22T04:27:40.697Z,19.66
2022-08-22T04:30:17.876Z,19.70
2022-08-22T04:32:57.662Z,19.73
2022-08-22T04:35:34.287Z,19.69
2022-08-22T04:38:11.639Z,19.67
2022-08-22T04:40:48.170Z,19.66
2022-08-22T04:43:25.377Z,19.63
2022-08-22T04:46:01.929Z,19.70
2022-08-22T04:51:23.281Z,20.23
2022-08-22T04:54:10.791Z,20.15
2022-08-22T04:56:46.271Z,20.12
2022-08-22T04:59:20.734Z,20.14
2022-08-22T05:01:59.344Z,20.11
2022-08-22T05:04:35.866Z,20.22
2022-08-22T05:07:12.858Z,20.37
2022-08-22T05:09:49.434Z,20.45
2022-08-22T05:12:26.185Z,20.45
2022-08-22T05:17:46.761Z,20.39
2022-08-22T05:20:23.584Z,20.23
2022-08-22T05:22:59.912Z,20.23
2022-08-22T05:25:36.952Z,20.36
2022-08-22T05:28:14.037Z,20.44
2022-08-22T05:30:48.957Z,20.46
2022-08-22T05:33:25.228Z,20.58
2022-08-22T05:36:01.875Z,20.84
2022-08-22T05:38:38.240Z,21.07
2022-08-22T05:41:14.940Z,21.29
2022-08-22T05:43:50.297Z,21.43
2022-08-22T05:46:27.067Z,21.47
2022-08-22T05:49:04.021Z,21.51
2022-08-22T05:51:40.225Z,21.61
2022-08-22T05:54:16.679Z,21.70
2022-08-22T05:56:53.199Z,21.73
2022-08-22T05:59:29.249Z,21.77
2022-08-22T06:02:06.965Z,21.94
2022-08-22T06:04:43.923Z,22.03
2022-08-22T06:07:22.311Z,22.36
2022-08-22T06:10:15.669Z,22.56
2022-08-22T06:12:53.514Z,22.79
2022-08-22T06:15:31.319Z,22.96
2022-08-22T06:18:10.443Z,23.03
2022-08-22T06:20:47.050Z,23.15
2022-08-22T06:23:23.554Z,23.25
2022-08-22T06:26:00.299Z,23.21
2022-08-22T06:28:37.128Z,22.98
2022-08-22T06:31:15.924Z,22.68
2022-08-22T06:33:52.257Z,22.45
2022-08-22T06:36:34.224Z,22.42
2022-08-22T06:39:15.879Z,22.48
2022-08-22T06:41:54.005Z,22.59
2022-08-22T06:44:32.328Z,22.60
2022-08-22T06:47:11.765Z,22.78
2022-08-22T06:49:47.323Z,22.81
2022-08-22T06:52:23.821Z,22.75
2022-08-22T06:55:01.063Z,22.74
2022-08-22T06:57:40.708Z,22.80
2022-08-22T07:00:18.389Z,22.80
2022-08-22T07:02:51.951Z,22.83
2022-08-22T07:05:28.992Z,23.00
2022-08-22T07:08:08.657Z,23.01
2022-08-22T07:10:45.721Z,22.95
2022-08-22T07:13:21.032Z,22.95
2022-08-22T07:15:56.989Z,23.14
2022-08-22T07:18:33.270Z,23.46
2022-08-22T07:21:09.421Z,23.85
2022-08-22T07:23:47.068Z,24.13
2022-08-22T07:26:24.388Z,24.64
2022-08-22T07:29:00.702Z,25.66
2022-08-22T07:31:40.100Z,27.01
2022-08-22T07:34:24.010Z,28.15
2022-08-22T07:37:02.415Z,28.71
2022-08-22T07:39:39.339Z,29.45
2022-08-22T07:42:18.993Z,29.82
2022-08-22T07:45:00.877Z,29.86
2022-08-22T07:47:56.059Z,29.66
2022-08-22T07:50:35.298Z,29.34
2022-08-22T07:53:11.994Z,28.94
2022-08-22T07:55:49.917Z,29.14
2022-08-22T07:58:26.400Z,29.52
2022-08-22T08:01:01.106Z,29.53
2022-08-22T08:03:35.515Z,29.51
2022-08-22T08:06:10.296Z,29.37
2022-08-22T08:08:46.320Z,29.40
2022-08-22T08:11:21.753Z,29.39
2022-08-22T08:13:58.943Z,29.63
2022-08-22T08:16:37.932Z,29.79
2022-08-22T08:19:13.991Z,29.55
2022-08-22T08:21:50.843Z,29.90
2022-08-22T08:24:27.695Z,30.21
2022-08-22T08:27:22.750Z,30.44
2022-08-22T08:29:59.216Z,30.57
2022-08-22T08:32:36.821Z,31.05
2022-08-22T08:35:14.249Z,30.90
2022-08-22T08:37:51.556Z,30.95
2022-08-22T08:40:32.896Z,30.76
2022-08-22T08:43:30.113Z,30.50
2022-08-22T08:46:58.734Z,30.42
2022-08-22T08:50:04.805Z,30.87
2022-08-22T08:52:51.044Z,31.23
2022-08-22T08:55:29.638Z,31.50
2022-08-22T08:58:17.674Z,32.38
2022-08-22T09:00:59.322Z,33.97
2022-08-22T09:07:22.647Z,34.15
2022-08-22T09:10:06.498Z,34.65
2022-08-22T09:12:56.143Z,35.84
2022-08-22T09:18:25.071Z,36.05
2022-08-22T09:21:32.791Z,36.19
2022-08-22T09:24:16.735Z,36.27
2022-08-22T09:26:53.366Z,35.95
2022-08-22T09:29:54.962Z,34.82
2022-08-22T09:32:23.983Z,34.40
2022-08-22T09:35:05.473Z,34.16
2022-08-22T09:37:46.579Z,33.27
2022-08-22T09:43:03.377Z,34.49
2022-08-22T09:45:51.395Z,36.38
2022-08-22T09:48:51.352Z,36.49
2022-08-22T09:54:32.997Z,35.32
2022-08-22T09:57:19.856Z,35.27
2022-08-22T10:00:00.224Z,34.88
2022-08-22T10:02:43.371Z,34.71
2022-08-22T10:05:41.080Z,35.55
2022-08-22T10:08:12.973Z,35.61
2022-08-22T10:11:06.645Z,35.73
2022-08-22T10:13:57.536Z,35.30
2022-08-22T10:16:38.961Z,35.54
2022-08-22T10:19:18.881Z,36.29
2022-08-22T10:22:15.851Z,36.88
2022-08-22T10:24:54.641Z,37.93
2022-08-22T10:27:34.551Z,39.25
2022-08-22T10:30:13.375Z,40.27
2022-08-22T10:32:50.258Z,40.59
2022-08-22T10:35:25.459Z,40.68
2022-08-22T10:38:02.187Z,40.75
2022-08-22T10:40:40.396Z,40.75
2022-08-22T10:43:16.831Z,40.69
2022-08-22T10:45:53.449Z,40.75
2022-08-22T10:48:33.785Z,40.74
2022-08-22T10:51:16.505Z,41.91
2022-08-22T10:56:59.431Z,41.01
2022-08-22T10:59:40.409Z,39.09
2022-08-22T11:02:53.195Z,39.00
2022-08-22T11:05:44.842Z,38.91
2022-08-22T11:09:07.826Z,38.76
2022-08-22T11:11:47.954Z,38.68
2022-08-22T11:14:29.562Z,38.80
2022-08-22T11:17:27.392Z,39.46
2022-08-22T11:19:53.343Z,40.00
2022-08-22T11:22:34.979Z,39.49
2022-08-22T11:25:38.849Z,39.68
2022-08-22T11:28:37.590Z,40.30
2022-08-22T11:31:16.614Z,40.55
2022-08-22T11:33:54.916Z,40.07
2022-08-22T11:36:32.192Z,39.15
2022-08-22T11:39:18.399Z,38.21
2022-08-22T11:41:52.769Z,37.60
2022-08-22T11:44:31.342Z,37.22
2022-08-22T11:47:11.155Z,37.25
2022-08-22T11:50:13.551Z,38.26
2022-08-22T11:53:01.496Z,39.13
2022-08-22T11:55:39.384Z,39.22
2022-08-22T11:58:28.686Z,38.53
2022-08-22T12:00:59.429Z,38.08
2022-08-22T12:03:45.122Z,37.42
2022-08-22T12:06:49.714Z,37.83
2022-08-22T12:09:45.550Z,38.25
2022-08-22T12:12:42.169Z,38.21
2022-08-22T12:15:21.313Z,38.41
2022-08-22T12:21:47.119Z,38.55
2022-08-22T12:24:35.739Z,37.22
2022-08-22T12:27:28.449Z,37.27
2022-08-22T12:30:03.295Z,37.51
2022-08-22T12:32:50.416Z,37.47
2022-08-22T12:35:48.477Z,36.32
2022-08-22T12:38:38.084Z,35.24
2022-08-22T12:41:28.439Z,34.74
2022-08-22T12:43:59.690Z,34.66
2022-08-22T12:46:47.410Z,34.19
2022-08-22T12:49:36.025Z,34.18
2022-08-22T12:52:20.164Z,33.70
2022-08-22T12:55:10.976Z,33.30
2022-08-22T12:57:50.298Z,32.90
2022-08-22T13:00:30.152Z,32.63
2022-08-22T13:03:06.187Z,32.43
2022-08-22T13:05:42.161Z,32.44
2022-08-22T13:08:23.864Z,32.54
2022-08-22T13:11:03.361Z,32.49
2022-08-22T13:13:41.403Z,32.53
2022-08-22T13:16:19.229Z,32.46
2022-08-22T13:18:55.990Z,32.57
2022-08-22T13:21:34.730Z,32.50
2022-08-22T13:24:11.497Z,32.02
2022-08-22T13:26:51.751Z,31.58
2022-08-22T13:29:39.464Z,31.64
2022-08-22T13:32:04.675Z,31.56
2022-08-22T13:34:43.702Z,31.57
2022-08-22T13:37:20.231Z,31.36
2022-08-22T13:39:58.067Z,31.45
2022-08-22T13:42:35.097Z,31.59
2022-08-22T13:45:14.829Z,31.54
2022-08-22T13:47:55.305Z,31.41
2022-08-22T13:50:37.048Z,31.22
2022-08-22T13:53:09.764Z,31.22
2022-08-22T13:55:49.201Z,31.66
2022-08-22T13:58:25.678Z,31.77
2022-08-22T14:01:05.078Z,31.93
2022-08-22T14:03:48.450Z,32.28
2022-08-22T14:06:35.434Z,32.23
2022-08-22T14:09:08.447Z,32.10
2022-08-22T14:11:41.974Z,31.60
2022-08-22T14:14:17.309Z,31.35
2022-08-22T14:16:55.088Z,31.15
2022-08-22T14:19:30.571Z,30.96
2022-08-22T14:22:07.803Z,30.89
2022-08-22T14:24:46.560Z,30.55
2022-08-22T14:27:33.061Z,30.32
2022-08-22T14:30:11.581Z,30.17
2022-08-22T14:32:49.000Z,30.13
2022-08-22T14:35:34.633Z,30.07
2022-08-22T14:38:05.339Z,29.96
2022-08-22T14:40:42.065Z,29.85
2022-08-22T14:43:22.460Z,29.87
2022-08-22T14:46:01.997Z,29.82
2022-08-22T14:48:40.753Z,29.86
2022-08-22T14:51:21.341Z,29.88
2022-08-22T14:53:56.300Z,29.72
2022-08-22T14:56:33.632Z,29.63
2022-08-22T14:59:10.986Z,29.55
2022-08-22T15:01:58.354Z,29.43
2022-08-22T15:04:36.746Z,29.38
2022-08-22T15:07:12.011Z,29.36
2022-08-22T15:09:48.127Z,29.30
2022-08-22T15:12:28.181Z,29.27
2022-08-22T15:15:04.599Z,29.25
2022-08-22T15:17:44.377Z,29.23
2022-08-22T15:20:28.658Z,29.20
2022-08-22T15:23:10.052Z,29.16
2022-08-22T15:25:47.091Z,29.17
2022-08-22T15:28:21.701Z,29.12
2022-08-22T15:31:05.932Z,29.09
2022-08-22T15:33:43.426Z,29.04
2022-08-22T15:36:20.275Z,28.99
2022-08-22T15:38:56.003Z,28.95
2022-08-22T15:41:40.207Z,28.91
2022-08-22T15:44:17.265Z,28.86
2022-08-22T15:47:02.173Z,28.80
2022-08-22T15:49:38.587Z,28.77
2022-08-22T15:52:24.169Z,28.75
2022-08-22T15:58:16.351Z,28.83
2022-08-22T16:00:57.151Z,28.61
2022-08-22T16:03:34.448Z,28.53
2022-08-22T16:06:11.593Z,28.45
2022-08-22T16:08:51.828Z,28.38
2022-08-22T16:11:33.412Z,28.30
2022-08-22T16:14:25.284Z,28.22
2022-08-22T16:17:04.117Z,28.15
2022-08-22T16:19:41.312Z,28.06
2022-08-22T16:22:17.339Z,28.02
2022-08-22T16:25:10.199Z,27.97
2022-08-22T16:27:58.818Z,27.93
2022-08-22T16:30:40.439Z,27.84
2022-08-22T16:33:18.399Z,27.73
2022-08-22T16:36:18.880Z,27.62
2022-08-22T16:38:54.897Z,27.56
2022-08-22T16:41:40.026Z,27.47
2022-08-22T16:44:23.709Z,27.42
2022-08-22T16:47:00.679Z,27.31
2022-08-22T16:49:36.827Z,27.24
2022-08-22T16:52:44.909Z,27.17
2022-08-22T16:56:01.564Z,27.13
2022-08-22T16:59:19.587Z,27.08
2022-08-22T17:01:49.987Z,27.03
2022-08-22T17:04:27.999Z,26.99
2022-08-22T17:07:14.410Z,26.95
2022-08-22T17:09:59.005Z,26.92
2022-08-22T17:12:42.959Z,26.87
2022-08-22T17:15:22.551Z,26.84
2022-08-22T17:18:11.753Z,26.81
2022-08-22T17:20:48.869Z,26.76
2022-08-22T17:23:28.963Z,26.71
2022-08-22T17:26:05.994Z,26.68
2022-08-22T17:28:42.625Z,26.62
2022-08-22T17:31:20.138Z,26.57
2022-08-22T17:33:56.918Z,26.57
2022-08-22T17:36:36.748Z,26.57
2022-08-22T17:39:15.163Z,26.48
2022-08-22T17:41:52.400Z,26.43
2022-08-22T17:44:29.231Z,26.41
2022-08-22T17:47:05.588Z,26.37
2022-08-22T17:49:49.137Z,26.36
2022-08-22T17:52:27.057Z,26.36
2022-08-22T17:55:03.717Z,26.35
2022-08-22T17:57:38.956Z,26.36
2022-08-22T18:00:18.544Z,26.36
2022-08-22T18:02:58.363Z,26.37
2022-08-22T18:05:35.377Z,26.37
2022-08-22T18:08:37.380Z,26.38
2022-08-22T18:10:51.963Z,26.37
2022-08-22T18:13:35.397Z,26.36
2022-08-22T18:16:15.443Z,26.35
2022-08-22T18:18:52.531Z,26.32
2022-08-22T18:21:29.106Z,26.32
2022-08-22T18:24:05.774Z,26.29
2022-08-22T18:26:43.768Z,26.27
2022-08-22T18:29:23.195Z,26.25
2022-08-22T18:31:59.925Z,26.22
2022-08-22T18:34:40.981Z,26.22
2022-08-22T18:37:22.156Z,26.21
2022-08-22T18:40:01.473Z,26.18
2022-08-22T18:42:37.963Z,26.14
2022-08-22T18:45:18.629Z,26.15
2022-08-22T18:48:00.270Z,26.16
2022-08-22T18:50:36.868Z,26.11
2022-08-22T18:56:25.699Z,26.18
2022-08-22T18:59:10.335Z,26.03
2022-08-22T19:01:54.192Z,25.99
2022-08-22T19:08:08.875Z,26.12
2022-08-22T19:10:53.233Z,25.93
2022-08-22T19:13:39.198Z,25.82
2022-08-22T19:16:24.812Z,25.75
2022-08-22T19:19:01.385Z,25.70
2022-08-22T19:21:54.212Z,25.67
2022-08-22T19:24:59.525Z,25.66
2022-08-22T19:33:27.680Z,25.65
2022-08-22T19:36:13.324Z,25.48
2022-08-22T19:39:09.028Z,25.46
2022-08-22T19:41:51.730Z,25.41
2022-08-22T19:44:45.777Z,25.35
2022-08-22T19:47:30.170Z,25.32
2022-08-22T19:50:07.763Z,25.31
2022-08-22T19:53:02.301Z,25.29
2022-08-22T19:55:45.256Z,25.28
2022-08-22T19:58:31.704Z,25.24
2022-08-22T20:01:00.758Z,25.22
2022-08-22T20:03:37.738Z,25.18
2022-08-22T20:06:33.624Z,25.19
2022-08-22T20:09:00.809Z,25.12
2022-08-22T20:11:42.512Z,25.10
2022-08-22T20:14:30.519Z,25.04
2022-08-22T20:17:10.477Z,25.00
2022-08-22T20:22:25.684Z,24.89
2022-08-22T20:25:02.535Z,24.86
2022-08-22T20:27:39.603Z,24.81
2022-08-22T20:30:16.782Z,24.74
2022-08-22T20:32:53.979Z,24.67
2022-08-22T20:35:31.082Z,24.61
2022-08-22T20:38:16.260Z,24.56
2022-08-22T20:40:56.058Z,24.57
2022-08-22T20:43:21.205Z,24.49
2022-08-22T20:45:57.999Z,24.46
2022-08-22T20:48:38.955Z,24.41
2022-08-22T20:51:16.779Z,24.38
2022-08-22T20:53:53.554Z,24.33
2022-08-22T20:56:48.645Z,24.35
2022-08-22T20:59:24.785Z,24.28
2022-08-22T21:02:03.192Z,24.22
2022-08-22T21:04:44.652Z,24.19
2022-08-22T21:07:26.217Z,24.15
2022-08-22T21:10:22.753Z,24.13
2022-08-22T21:13:11.331Z,24.07
2022-08-22T21:15:47.674Z,24.02
2022-08-22T21:18:31.160Z,23.98
2022-08-22T21:21:17.188Z,23.93
2022-08-22T21:23:47.949Z,23.92
2022-08-22T21:26:27.656Z,23.91
2022-08-22T21:29:04.115Z,23.90
2022-08-22T21:31:41.753Z,23.88
2022-08-22T21:34:21.283Z,23.87
2022-08-22T21:36:57.973Z,23.86
2022-08-22T21:39:34.338Z,23.85
2022-08-22T21:42:18.052Z,23.84
2022-08-22T21:45:00.414Z,23.82
2022-08-22T21:47:37.666Z,23.80
2022-08-22T21:50:19.013Z,23.74
2022-08-22T21:53:05.982Z,23.82
2022-08-22T21:55:44.532Z,23.83
2022-08-22T21:58:36.972Z,23.84
2022-08-22T22:01:29.147Z,23.83
2022-08-22T22:04:02.620Z,23.81
2022-08-22T22:06:36.033Z,23.80
2022-08-22T22:09:14.524Z,23.78
2022-08-22T22:11:45.232Z,23.78
2022-08-22T22:14:18.734Z,23.76
2022-08-22T22:16:52.350Z,23.78
2022-08-22T22:19:26.065Z,23.78
2022-08-22T22:21:59.742Z,23.75
2022-08-22T22:24:33.116Z,23.75
2022-08-22T22:27:07.740Z,23.74
2022-08-22T22:29:41.211Z,23.74
2022-08-22T22:32:15.293Z,23.74
2022-08-22T22:34:48.848Z,23.73
2022-08-22T22:37:22.350Z,23.71
2022-08-22T22:39:56.213Z,23.69
2022-08-22T22:42:29.698Z,23.68
2022-08-22T22:45:03.540Z,23.66
2022-08-22T22:47:38.191Z,23.63
2022-08-22T22:50:12.174Z,23.61
2022-08-22T22:52:45.597Z,23.60
2022-08-22T22:55:24.308Z,23.60
2022-08-22T22:57:59.276Z,23.58
2022-08-22T23:00:33.409Z,23.57
2022-08-22T23:03:07.949Z,23.60
2022-08-22T23:05:41.500Z,23.63
2022-08-22T23:08:15.101Z,23.63
2022-08-22T23:10:48.625Z,23.61
2022-08-22T23:13:22.369Z,23.57
2022-08-22T23:15:55.965Z,23.59
2022-08-22T23:18:32.060Z,23.60
2022-08-22T23:21:16.571Z,23.61
2022-08-22T23:23:50.658Z,23.61
2022-08-22T23:26:24.479Z,23.61
2022-08-22T23:28:58.741Z,23.58
2022-08-22T23:31:35.217Z,23.57
2022-08-22T23:34:11.186Z,23.58
2022-08-22T23:36:47.190Z,23.57
2022-08-22T23:39:21.999Z,23.54
2022-08-22T23:41:55.755Z,23.55
2022-08-22T23:44:31.812Z,23.53
2022-08-22T23:47:06.544Z,23.52
2022-08-22T23:49:43.846Z,23.51
2022-08-22T23:52:24.134Z,23.48
2022-08-22T23:54:57.688Z,23.42
2022-08-22T23:57:31.254Z,23.37
